Time;durP1;ratioP1;P1;durP2;ratioP2;P2;SDS_P1;SDS_P2;PMS_P1;PMS_P2;Temp;Humidity;BMP_temperature;BMP_pressure;BME280_temperature;BME280_humidity;BME280_pressure;Samples;Min_cycle;Max_cycle;Signal;HPM_P1;HPM_P2
2023/03/13 00:01:54;;;;;;;1.17;0.95;;;6.70;99.90;;;;;;4419808;32;20085;-72
2023/03/13 00:04:20;;;;;;;14.40;1.52;;;6.70;99.90;;;;;;4419350;32;20078;-71
2023/03/13 00:06:45;;;;;;;5.15;1.12;;;6.70;99.90;;;;;;4418646;32;20580;-73
2023/03/13 00:09:13;;;;;;;0.40;0.40;;;6.80;99.90;;;;;;4421142;32;20066;-71
2023/03/13 00:11:39;;;;;;;0.47;0.47;;;6.80;99.90;;;;;;4418307;32;20162;-71
2023/03/13 00:14:05;;;;;;;0.60;0.60;;;6.80;99.90;;;;;;4420576;32;20465;-71
2023/03/13 00:16:33;;;;;;;1.00;0.75;;;6.80;99.90;;;;;;4420425;32;20078;-71
2023/03/13 00:18:58;;;;;;;1.83;1.20;;;6.80;99.90;;;;;;4419866;32;20089;-71
2023/03/13 00:21:26;;;;;;;1.00;0.70;;;6.90;99.90;;;;;;4419379;32;20077;-71
2023/03/13 00:23:52;;;;;;;1.10;0.93;;;6.90;99.90;;;;;;4421372;32;20093;-72
2023/03/13 00:26:21;;;;;;;3.40;1.10;;;6.90;99.90;;;;;;4417779;32;20078;-72
2023/03/13 00:28:46;;;;;;;1.35;0.82;;;6.90;99.90;;;;;;4418122;32;20077;-72
2023/03/13 00:31:15;;;;;;;2.15;1.02;;;6.90;99.90;;;;;;4419954;32;20077;-71
2023/03/13 00:33:43;;;;;;;0.60;0.60;;;7.00;99.90;;;;;;4420262;32;20478;-72
2023/03/13 00:36:11;;;;;;;0.90;0.90;;;6.90;99.90;;;;;;4421953;32;20128;-72
2023/03/13 00:38:37;;;;;;;1.35;0.95;;;6.90;99.90;;;;;;4423070;32;20119;-72
2023/03/13 00:41:05;;;;;;;2.05;1.00;;;6.90;99.90;;;;;;4422400;32;20065;-72
2023/03/13 00:43:32;;;;;;;1.58;0.68;;;6.90;99.90;;;;;;4427363;32;20498;-72
2023/03/13 00:45:57;;;;;;;0.32;0.32;;;6.90;99.90;;;;;;4432234;32;20101;-72
2023/03/13 00:48:23;;;;;;;0.37;0.37;;;7.00;99.90;;;;;;4434015;32;20069;-72
2023/03/13 00:50:49;;;;;;;0.70;0.62;;;7.00;99.90;;;;;;4431275;32;20094;-72
2023/03/13 00:53:14;;;;;;;0.50;0.50;;;6.90;99.90;;;;;;4431891;32;20061;-70
2023/03/13 00:55:58;;;;;;;0.60;0.60;;;6.90;99.90;;;;;;4431639;32;20089;-73
2023/03/13 00:58:25;;;;;;;0.77;0.47;;;7.00;99.90;;;;;;4432216;32;20061;-71
2023/03/13 01:00:51;;;;;;;0.50;0.50;;;7.00;99.90;;;;;;4431272;32;20108;-72
2023/03/13 01:03:17;;;;;;;4.43;0.88;;;7.00;99.90;;;;;;4434823;32;20102;-72
2023/03/13 01:05:43;;;;;;;0.45;0.45;;;7.00;99.90;;;;;;4430848;32;20513;-73
2023/03/13 01:08:08;;;;;;;40.47;1.62;;;7.00;99.90;;;;;;4433232;32;20105;-73
2023/03/13 01:10:34;;;;;;;4.60;2.17;;;7.00;99.90;;;;;;4431325;32;20085;-70
2023/03/13 01:13:00;;;;;;;1.95;0.80;;;7.00;99.90;;;;;;4430764;32;20123;-71
2023/03/13 01:15:25;;;;;;;0.40;0.40;;;7.00;99.90;;;;;;4433064;32;20077;-70
2023/03/13 01:17:51;;;;;;;0.47;0.47;;;7.00;99.90;;;;;;4435677;32;20096;-73
2023/03/13 01:20:16;;;;;;;5.35;0.82;;;7.00;99.90;;;;;;4432173;32;20081;-72
2023/03/13 01:22:42;;;;;;;7.45;1.48;;;7.10;99.90;;;;;;4430515;32;20069;-73
2023/03/13 01:25:07;;;;;;;0.88;0.88;;;7.00;99.90;;;;;;4433122;32;20420;-72
2023/03/13 01:27:33;;;;;;;0.50;0.50;;;7.10;99.90;;;;;;4431524;32;20066;-70
2023/03/13 01:29:58;;;;;;;1.00;1.00;;;7.00;99.90;;;;;;4432900;32;20096;-71
2023/03/13 01:32:24;;;;;;;4.60;0.77;;;7.00;99.90;;;;;;4430756;32;20077;-72
2023/03/13 01:34:50;;;;;;;0.88;0.82;;;7.00;99.90;;;;;;4431653;32;20097;-71
2023/03/13 01:37:15;;;;;;;0.68;0.57;;;7.10;99.90;;;;;;4430003;32;20576;-71
2023/03/13 01:39:41;;;;;;;0.52;0.52;;;7.00;99.90;;;;;;4430210;32;20104;-74
2023/03/13 01:42:06;;;;;;;1.20;0.43;;;7.00;99.90;;;;;;4429273;32;20344;-71
2023/03/13 01:44:53;;;;;;;0.77;0.77;;;7.00;99.90;;;;;;4421341;32;20117;-73
2023/03/13 01:47:19;;;;;;;3.12;0.62;;;7.10;99.90;;;;;;4418579;32;20077;-71
2023/03/13 01:49:45;;;;;;;0.40;0.40;;;7.10;99.90;;;;;;4421848;32;20070;-72
2023/03/13 01:52:16;;;;;;;3.20;1.73;;;7.10;99.90;;;;;;4418969;32;20061;-72
2023/03/13 01:55:02;;;;;;;0.45;0.45;;;7.10;99.90;;;;;;4420236;32;20098;-74
2023/03/13 01:57:36;;;;;;;0.85;0.50;;;7.10;99.90;;;;;;4420495;32;20101;-70
2023/03/13 02:00:15;;;;;;;0.62;0.62;;;7.10;99.90;;;;;;4420725;32;20696;-73
2023/03/13 02:02:45;;;;;;;0.60;0.60;;;7.20;99.90;;;;;;4418980;32;20411;-72
2023/03/13 02:05:12;;;;;;;0.40;0.40;;;7.20;99.90;;;;;;4421138;32;20176;-72
2023/03/13 02:07:41;;;;;;;2.30;1.02;;;7.20;99.90;;;;;;4420443;32;20608;-72
2023/03/13 02:10:10;;;;;;;1.00;1.00;;;7.30;99.90;;;;;;4407106;32;20514;-73
2023/03/13 02:12:38;;;;;;;0.68;0.60;;;7.20;99.90;;;;;;4409663;32;20146;-72
2023/03/13 02:15:11;;;;;;;0.47;0.47;;;7.30;99.90;;;;;;4418390;32;20528;-73
2023/03/13 02:17:38;;;;;;;1.77;0.75;;;7.30;99.90;;;;;;4415766;32;20097;-73
2023/03/13 02:20:04;;;;;;;0.40;0.40;;;7.30;99.90;;;;;;4420209;32;20520;-73
2023/03/13 02:23:09;;;;;;;2.47;0.60;;;7.30;99.90;;;;;;4420616;32;20422;-72
2023/03/13 02:25:41;;;;;;;0.60;0.60;;;7.30;99.90;;;;;;4419303;32;20105;-73
2023/03/13 02:28:12;;;;;;;2.70;0.93;;;7.30;99.90;;;;;;4420937;32;20105;-73
2023/03/13 02:30:38;;;;;;;;;;;7.30;99.90;;;;;;4420203;32;20098;-72
2023/03/13 02:33:04;;;;;;;2.15;1.25;;;7.40;99.90;;;;;;4419768;32;20463;-72
2023/03/13 02:35:31;;;;;;;1.75;1.48;;;7.40;99.90;;;;;;4419430;32;20054;-73
2023/03/13 02:38:01;;;;;;;0.65;0.65;;;7.40;99.90;;;;;;4420134;32;20077;-72
2023/03/13 02:40:30;;;;;;;11.23;1.20;;;7.50;99.90;;;;;;4419233;32;20049;-72
2023/03/13 02:42:59;;;;;;;0.45;0.45;;;7.50;99.90;;;;;;4420714;32;20164;-73
2023/03/13 02:45:25;;;;;;;1.67;1.33;;;7.50;99.90;;;;;;4430708;32;20077;-72
2023/03/13 02:47:51;;;;;;;0.52;0.52;;;7.60;99.90;;;;;;4429556;32;20150;-73
2023/03/13 02:50:18;;;;;;;0.62;0.62;;;7.60;99.90;;;;;;4430201;32;20069;-72
2023/03/13 02:52:48;;;;;;;0.32;0.32;;;7.60;99.90;;;;;;4430326;32;20064;-73
2023/03/13 02:55:21;;;;;;;1.98;1.08;;;7.60;99.90;;;;;;4430854;32;20133;-72
2023/03/13 02:57:46;;;;;;;1.02;0.98;;;7.60;99.90;;;;;;4428781;32;20521;-72
2023/03/13 03:00:12;;;;;;;0.55;0.55;;;7.60;99.90;;;;;;4431418;32;20108;-71
2023/03/13 03:02:38;;;;;;;0.60;0.60;;;7.70;99.90;;;;;;4430303;32;20402;-73
2023/03/13 03:05:04;;;;;;;1.00;1.00;;;7.70;99.90;;;;;;4432332;32;20078;-73
2023/03/13 03:07:31;;;;;;;0.65;0.65;;;7.70;99.90;;;;;;4431859;32;20533;-72
2023/03/13 03:09:56;;;;;;;9.70;0.60;;;7.70;99.90;;;;;;4431191;32;20069;-71
2023/03/13 03:12:22;;;;;;;4.57;1.83;;;7.70;99.90;;;;;;4432306;32;20517;-72
2023/03/13 03:14:47;;;;;;;5.93;1.95;;;7.70;99.90;;;;;;4431852;32;20069;-72
2023/03/13 03:17:13;;;;;;;0.60;0.60;;;7.80;99.90;;;;;;4428513;32;20085;-71
2023/03/13 03:19:38;;;;;;;1.70;1.00;;;7.80;99.90;;;;;;4430244;32;20068;-71
2023/03/13 03:22:04;;;;;;;1.77;0.75;;;7.90;99.90;;;;;;4428173;32;20077;-73
2023/03/13 03:24:29;;;;;;;0.73;0.73;;;7.90;99.90;;;;;;4429115;32;20541;-71
2023/03/13 03:26:55;;;;;;;2.10;1.25;;;7.90;99.90;;;;;;4429609;32;20508;-71
2023/03/13 03:29:20;;;;;;;0.57;0.57;;;7.90;99.90;;;;;;4432191;32;20200;-71
2023/03/13 03:31:46;;;;;;;4.22;1.60;;;7.90;99.90;;;;;;4428725;32;20441;-72
2023/03/13 03:34:11;;;;;;;0.50;0.50;;;7.90;99.90;;;;;;4430875;32;20074;-71
2023/03/13 03:36:37;;;;;;;0.75;0.55;;;7.90;99.90;;;;;;4429209;32;20433;-72
2023/03/13 03:39:03;;;;;;;0.73;0.62;;;7.90;99.90;;;;;;4432099;32;20140;-72
2023/03/13 03:41:29;;;;;;;0.45;0.45;;;7.90;99.90;;;;;;4428269;32;20113;-72
2023/03/13 03:43:54;;;;;;;1.55;1.10;;;7.90;99.90;;;;;;4430712;32;20099;-72
2023/03/13 03:46:20;;;;;;;0.60;0.60;;;7.90;99.90;;;;;;4426420;32;20149;-72
2023/03/13 03:48:45;;;;;;;2.10;0.82;;;7.90;99.90;;;;;;4429489;32;20552;-73
2023/03/13 03:51:11;;;;;;;0.98;0.98;;;7.90;99.90;;;;;;4429518;32;20089;-72
2023/03/13 03:53:36;;;;;;;2.28;2.08;;;7.90;99.90;;;;;;4430382;32;20580;-71
2023/03/13 03:56:02;;;;;;;7.43;1.00;;;7.90;99.90;;;;;;4429793;32;20082;-72
2023/03/13 03:58:27;;;;;;;0.40;0.40;;;7.90;99.90;;;;;;4432185;32;20176;-71
2023/03/13 04:00:55;;;;;;;0.30;0.30;;;7.90;99.90;;;;;;4428815;32;20572;-72
2023/03/13 04:03:21;;;;;;;2.72;0.88;;;7.90;99.90;;;;;;4431434;32;20114;-71
2023/03/13 04:05:46;;;;;;;7.35;1.58;;;7.90;99.90;;;;;;4427701;32;20089;-72
2023/03/13 04:08:12;;;;;;;0.40;0.40;;;7.90;99.90;;;;;;4430113;32;20131;-71
2023/03/13 04:10:37;;;;;;;3.58;1.58;;;7.90;99.90;;;;;;4433519;32;20504;-72
2023/03/13 04:13:03;;;;;;;5.70;1.87;;;7.80;99.90;;;;;;4431095;32;20097;-71
2023/03/13 04:15:28;;;;;;;0.77;0.77;;;7.80;99.90;;;;;;4430865;32;20100;-72
2023/03/13 04:17:54;;;;;;;6.35;0.60;;;7.80;99.90;;;;;;4428256;32;20434;-72
2023/03/13 04:20:19;;;;;;;0.75;0.75;;;7.80;99.90;;;;;;4429368;32;20120;-72
2023/03/13 04:22:45;;;;;;;0.60;0.60;;;7.90;99.90;;;;;;4429940;32;20078;-71
2023/03/13 04:25:10;;;;;;;4.03;1.37;;;7.80;99.90;;;;;;4429926;32;20485;-71
2023/03/13 04:27:36;;;;;;;7.75;0.85;;;7.80;99.90;;;;;;4429329;32;20113;-72
2023/03/13 04:30:03;;;;;;;2.90;1.48;;;7.90;99.90;;;;;;4429063;32;20085;-71
2023/03/13 04:32:29;;;;;;;0.85;0.70;;;7.90;99.90;;;;;;4426470;32;20084;-71
2023/03/13 04:34:54;;;;;;;0.40;0.40;;;7.90;99.90;;;;;;4432861;32;20061;-73
2023/03/13 04:37:19;;;;;;;0.57;0.57;;;7.90;99.90;;;;;;4428552;32;20097;-71
2023/03/13 04:39:46;;;;;;;1.95;1.50;;;7.90;99.90;;;;;;4430070;32;20069;-71
2023/03/13 04:42:12;;;;;;;2.67;0.73;;;7.80;99.90;;;;;;4430799;32;20451;-72
2023/03/13 04:44:38;;;;;;;0.80;0.80;;;7.90;99.90;;;;;;4431001;32;20090;-72
2023/03/13 04:47:04;;;;;;;0.57;0.57;;;7.80;99.90;;;;;;4428324;32;20073;-72
2023/03/13 04:49:29;;;;;;;0.40;0.40;;;7.80;99.90;;;;;;4432095;32;20472;-72
2023/03/13 04:51:55;;;;;;;0.40;0.40;;;7.90;99.90;;;;;;4427477;32;20093;-71
2023/03/13 04:54:21;;;;;;;0.35;0.35;;;7.90;99.90;;;;;;4433192;32;20070;-71
2023/03/13 04:56:47;;;;;;;0.30;0.30;;;7.80;99.90;;;;;;4428457;32;20065;-72
2023/03/13 04:59:14;;;;;;;1.30;1.20;;;7.80;99.90;;;;;;4430466;32;20560;-72
2023/03/13 05:01:40;;;;;;;3.60;1.55;;;7.80;99.90;;;;;;4426653;32;20120;-71
2023/03/13 05:04:06;;;;;;;1.90;0.55;;;7.90;99.90;;;;;;4430146;32;20571;-71
2023/03/13 05:06:31;;;;;;;0.50;0.50;;;7.90;99.90;;;;;;4429857;32;20088;-71
2023/03/13 05:08:57;;;;;;;1.55;1.37;;;7.80;99.90;;;;;;4429978;32;20218;-72
2023/03/13 05:11:22;;;;;;;0.40;0.40;;;7.80;99.90;;;;;;4430385;32;20085;-71
2023/03/13 05:13:48;;;;;;;0.73;0.73;;;7.80;99.90;;;;;;4432301;32;20095;-71
2023/03/13 05:16:13;;;;;;;0.52;0.52;;;7.90;99.90;;;;;;4427876;32;20065;-72
2023/03/13 05:18:39;;;;;;;0.85;0.82;;;7.90;99.90;;;;;;4431154;32;20082;-72
2023/03/13 05:21:05;;;;;;;0.95;0.95;;;7.90;99.90;;;;;;4426547;32;20499;-72
2023/03/13 05:23:31;;;;;;;14.80;1.20;;;7.90;99.90;;;;;;4431176;32;20098;-71
2023/03/13 05:25:56;;;;;;;6.82;1.42;;;7.90;99.90;;;;;;4432110;32;20088;-72
2023/03/13 05:28:22;;;;;;;3.12;0.65;;;7.90;99.90;;;;;;4432827;32;20077;-72
2023/03/13 05:30:47;;;;;;;0.95;0.80;;;7.90;99.90;;;;;;4430690;32;20085;-72
2023/03/13 05:33:13;;;;;;;1.15;1.02;;;7.90;99.90;;;;;;4432202;32;20120;-71
2023/03/13 05:35:38;;;;;;;0.57;0.57;;;7.90;99.90;;;;;;4432655;32;20089;-73
2023/03/13 05:38:04;;;;;;;1.80;0.80;;;8.00;99.90;;;;;;4432120;32;20153;-72
2023/03/13 05:40:29;;;;;;;4.07;1.35;;;7.90;99.90;;;;;;4431295;32;20140;-72
2023/03/13 05:42:55;;;;;;;0.73;0.73;;;7.90;99.90;;;;;;4432406;32;20102;-73
2023/03/13 05:45:21;;;;;;;6.07;1.05;;;7.90;99.90;;;;;;4433439;32;20096;-71
2023/03/13 05:47:46;;;;;;;0.62;0.62;;;7.90;99.90;;;;;;4431644;32;20089;-72
2023/03/13 05:50:12;;;;;;;11.30;1.58;;;7.90;99.90;;;;;;4431337;32;20450;-72
2023/03/13 05:52:37;;;;;;;0.40;0.40;;;7.90;99.90;;;;;;4431144;32;20070;-73
2023/03/13 05:55:03;;;;;;;4.35;2.55;;;7.90;99.90;;;;;;4433371;32;20088;-73
2023/03/13 05:57:29;;;;;;;0.40;0.40;;;7.90;99.90;;;;;;4433598;32;20081;-73
2023/03/13 05:59:54;;;;;;;3.60;1.42;;;7.90;99.90;;;;;;4432520;32;20072;-72
2023/03/13 06:02:20;;;;;;;1.70;0.70;;;7.90;99.90;;;;;;4425258;32;20093;-72
2023/03/13 06:04:46;;;;;;;7.57;2.25;;;7.90;99.90;;;;;;4430965;32;20497;-72
2023/03/13 06:07:12;;;;;;;7.05;0.70;;;7.80;99.90;;;;;;4429113;32;20146;-73
2023/03/13 06:09:39;;;;;;;0.70;0.70;;;7.80;99.90;;;;;;4430501;32;20077;-72
2023/03/13 06:12:06;;;;;;;1.70;1.10;;;7.90;99.90;;;;;;4427299;32;20081;-72
2023/03/13 06:14:31;;;;;;;0.85;0.85;;;7.90;99.90;;;;;;4433825;32;20089;-72
2023/03/13 06:16:57;;;;;;;0.40;0.40;;;7.90;99.90;;;;;;4418825;32;20081;-74
2023/03/13 06:19:23;;;;;;;2.53;1.75;;;7.90;99.90;;;;;;4430636;32;20065;-71
2023/03/13 06:21:49;;;;;;;0.80;0.75;;;7.90;99.90;;;;;;4431491;32;20116;-70
2023/03/13 06:24:15;;;;;;;0.43;0.43;;;7.90;99.90;;;;;;4427954;32;20667;-71
2023/03/13 06:26:40;;;;;;;1.83;1.30;;;7.90;99.90;;;;;;4418323;32;20332;-72
2023/03/13 06:29:06;;;;;;;1.85;0.82;;;7.90;99.90;;;;;;4423420;32;20064;-71
2023/03/13 06:31:31;;;;;;;0.50;0.50;;;7.90;99.90;;;;;;4402254;32;20801;-72
2023/03/13 06:33:57;;;;;;;3.58;1.12;;;7.90;99.90;;;;;;4416373;32;20438;-72
2023/03/13 06:36:24;;;;;;;13.27;1.33;;;8.00;99.90;;;;;;4417383;32;20521;-73
2023/03/13 06:38:50;;;;;;;1.60;1.37;;;8.00;99.90;;;;;;4420956;32;20100;-74
2023/03/13 06:41:15;;;;;;;1.08;0.47;;;7.90;99.90;;;;;;4420490;32;20547;-74
2023/03/13 06:43:41;;;;;;;0.75;0.75;;;7.90;99.90;;;;;;4416611;32;20112;-75
2023/03/13 06:46:11;;;;;;;8.40;2.47;;;7.90;99.90;;;;;;4422344;32;20089;-72
2023/03/13 06:48:37;;;;;;;0.50;0.50;;;8.00;99.90;;;;;;4420510;32;21264;-72
2023/03/13 06:51:03;;;;;;;1.75;1.23;;;8.00;99.90;;;;;;4415279;32;20116;-74
2023/03/13 06:53:28;;;;;;;0.93;0.90;;;8.00;99.90;;;;;;4418920;32;20088;-73
2023/03/13 06:55:53;;;;;;;0.60;0.60;;;8.00;99.90;;;;;;4416934;32;20102;-73
2023/03/13 06:58:19;;;;;;;0.60;0.60;;;8.00;99.90;;;;;;4404073;32;20444;-73
2023/03/13 07:00:45;;;;;;;1.10;1.00;;;8.00;99.90;;;;;;4396559;32;20313;-75
2023/03/13 07:03:13;;;;;;;6.25;2.45;;;8.00;99.90;;;;;;4392618;32;20106;-73
2023/03/13 07:05:38;;;;;;;0.40;0.40;;;8.10;99.90;;;;;;4388087;32;20148;-72
2023/03/13 07:08:04;;;;;;;0.73;0.73;;;8.10;99.90;;;;;;4373520;32;20097;-72
2023/03/13 07:10:30;;;;;;;6.82;1.70;;;8.10;99.90;;;;;;4383535;32;20232;-72
2023/03/13 07:12:56;;;;;;;0.35;0.35;;;8.10;99.90;;;;;;4386506;32;20260;-73
2023/03/13 07:15:23;;;;;;;1.08;1.05;;;8.20;99.90;;;;;;4379478;32;20096;-72
2023/03/13 07:17:49;;;;;;;1.40;1.27;;;8.20;99.90;;;;;;4386866;32;20105;-72
2023/03/13 07:20:15;;;;;;;2.10;1.20;;;8.20;99.90;;;;;;4386721;32;20112;-73
2023/03/13 07:22:41;;;;;;;0.70;0.70;;;8.20;99.90;;;;;;4390255;32;20088;-72
2023/03/13 07:25:08;;;;;;;4.53;1.08;;;8.20;99.90;;;;;;4383084;32;20110;-72
2023/03/13 07:27:33;;;;;;;0.30;0.30;;;8.30;99.90;;;;;;4383552;32;20121;-73
2023/03/13 07:29:59;;;;;;;0.52;0.52;;;8.30;99.90;;;;;;4397949;32;20105;-72
2023/03/13 07:32:24;;;;;;;19.35;0.95;;;8.30;99.90;;;;;;4388559;32;20122;-73
2023/03/13 07:34:50;;;;;;;0.70;0.70;;;8.30;99.90;;;;;;4395211;32;20100;-73
2023/03/13 07:37:16;;;;;;;0.62;0.62;;;8.30;99.90;;;;;;4388098;32;20500;-73
2023/03/13 07:39:43;;;;;;;7.57;2.60;;;8.30;99.90;;;;;;4391414;32;20096;-73
2023/03/13 07:42:11;;;;;;;2.05;1.50;;;8.40;99.90;;;;;;4390408;32;20740;-73
2023/03/13 07:44:36;;;;;;;0.60;0.60;;;8.40;99.90;;;;;;4399472;32;20178;-73
2023/03/13 07:47:03;;;;;;;0.93;0.93;;;8.50;99.90;;;;;;4391503;32;20450;-72
2023/03/13 07:49:28;;;;;;;0.73;0.65;;;8.50;99.90;;;;;;4394648;32;20542;-72
2023/03/13 07:51:54;;;;;;;0.68;0.60;;;8.50;99.90;;;;;;4399761;32;20428;-73
2023/03/13 07:54:19;;;;;;;0.73;0.70;;;8.50;99.90;;;;;;4387325;32;20514;-73
2023/03/13 07:56:45;;;;;;;1.55;1.00;;;8.50;99.90;;;;;;4380538;32;20108;-73
2023/03/13 07:59:10;;;;;;;0.45;0.45;;;8.50;99.90;;;;;;4387387;32;20488;-74
2023/03/13 08:01:36;;;;;;;0.60;0.60;;;8.60;99.90;;;;;;4392780;32;21068;-73
2023/03/13 08:04:02;;;;;;;1.98;1.48;;;8.60;99.90;;;;;;4387497;32;20513;-74
2023/03/13 08:06:30;;;;;;;1.87;1.37;;;8.60;99.90;;;;;;4385995;32;21117;-73
2023/03/13 08:08:57;;;;;;;0.62;0.62;;;8.60;99.90;;;;;;4380348;32;20952;-73
2023/03/13 08:11:25;;;;;;;0.75;0.70;;;8.70;99.90;;;;;;4376950;32;20108;-73
2023/03/13 08:13:51;;;;;;;0.30;0.30;;;8.60;99.90;;;;;;4377751;32;21331;-74
2023/03/13 08:16:20;;;;;;;1.65;1.12;;;8.70;99.90;;;;;;4387270;32;20101;-75
2023/03/13 08:18:52;;;;;;;0.40;0.40;;;8.60;99.90;;;;;;4396979;32;20151;-74
2023/03/13 08:21:20;;;;;;;4.68;1.58;;;8.70;99.90;;;;;;4393737;32;20100;-74
2023/03/13 08:23:47;;;;;;;0.60;0.60;;;8.70;99.90;;;;;;4392480;32;20604;-73
2023/03/13 08:26:14;;;;;;;1.40;0.60;;;8.60;99.90;;;;;;4384782;32;20109;-74
2023/03/13 08:28:41;;;;;;;2.92;0.90;;;8.60;99.90;;;;;;4386082;32;20441;-72
2023/03/13 08:31:12;;;;;;;0.43;0.43;;;8.70;99.90;;;;;;4384317;32;20085;-73
2023/03/13 08:33:39;;;;;;;0.30;0.30;;;8.70;99.90;;;;;;4389301;32;20596;-75
2023/03/13 08:36:23;;;;;;;2.85;0.88;;;8.70;99.90;;;;;;4395526;32;20092;-75
2023/03/13 08:38:51;;;;;;;4.68;2.35;;;8.70;99.90;;;;;;4400819;32;20804;-73
2023/03/13 08:41:20;;;;;;;1.25;0.82;;;8.70;99.90;;;;;;4380444;32;20948;-73
2023/03/13 08:43:46;;;;;;;0.98;0.98;;;8.80;99.90;;;;;;4385850;32;20496;-74
2023/03/13 08:46:13;;;;;;;2.22;0.57;;;8.80;99.90;;;;;;4398039;32;20100;-75
2023/03/13 08:48:40;;;;;;;0.75;0.75;;;8.80;99.90;;;;;;4379885;32;20101;-74
2023/03/13 08:51:08;;;;;;;0.40;0.40;;;8.90;99.90;;;;;;4382081;32;20387;-73
2023/03/13 08:53:35;;;;;;;0.40;0.40;;;8.90;99.90;;;;;;4387671;32;20096;-74
2023/03/13 08:56:01;;;;;;;0.40;0.40;;;9.00;99.90;;;;;;4394736;32;20120;-73
2023/03/13 08:58:27;;;;;;;0.50;0.50;;;9.00;99.90;;;;;;4374769;32;20105;-73
2023/03/13 09:00:53;;;;;;;0.30;0.30;;;9.10;99.90;;;;;;4382029;32;20631;-73
2023/03/13 09:03:19;;;;;;;26.55;1.37;;;9.10;99.90;;;;;;4380035;32;20402;-73
2023/03/13 09:05:46;;;;;;;6.72;1.30;;;9.10;99.90;;;;;;4387863;32;20141;-72
2023/03/13 09:08:12;;;;;;;0.40;0.40;;;9.10;99.90;;;;;;4390533;32;20332;-73
2023/03/13 09:10:38;;;;;;;0.50;0.50;;;9.20;99.90;;;;;;4384986;32;21936;-72
2023/03/13 09:13:03;;;;;;;0.30;0.30;;;9.20;99.90;;;;;;4391551;32;20092;-73
2023/03/13 09:15:30;;;;;;;0.57;0.57;;;9.30;99.90;;;;;;4391697;32;20156;-73
2023/03/13 09:17:55;;;;;;;0.30;0.30;;;9.30;99.90;;;;;;4392751;32;21883;-73
2023/03/13 09:20:22;;;;;;;0.50;0.50;;;9.30;99.90;;;;;;4389678;32;20686;-74
2023/03/13 09:22:47;;;;;;;1.65;0.70;;;9.30;99.90;;;;;;4387079;32;20092;-73
2023/03/13 09:25:14;;;;;;;0.50;0.50;;;9.40;99.90;;;;;;4387087;32;20903;-73
2023/03/13 09:27:40;;;;;;;0.30;0.30;;;9.40;99.90;;;;;;4380504;32;20448;-73
2023/03/13 09:30:06;;;;;;;0.45;0.45;;;9.40;99.90;;;;;;4376129;32;20612;-73
2023/03/13 09:32:33;;;;;;;1.90;1.15;;;9.40;99.90;;;;;;4384901;32;20270;-73
2023/03/13 09:34:58;;;;;;;3.10;2.12;;;9.40;99.90;;;;;;4386465;32;20287;-74
2023/03/13 09:37:25;;;;;;;0.50;0.50;;;9.50;99.90;;;;;;4393171;32;20138;-73
2023/03/13 09:39:51;;;;;;;0.62;0.47;;;9.50;99.90;;;;;;4392276;32;20100;-74
2023/03/13 09:42:21;;;;;;;7.28;0.70;;;9.50;99.90;;;;;;4392735;32;20788;-73
2023/03/13 09:44:57;;;;;;;1.05;1.00;;;9.50;99.90;;;;;;4386222;32;20120;-73
2023/03/13 09:47:33;;;;;;;1.12;1.02;;;9.50;99.90;;;;;;4378620;32;22490;-73
2023/03/13 09:50:09;;;;;;;0.30;0.30;;;9.60;99.90;;;;;;4384919;32;20151;-74
2023/03/13 09:52:39;;;;;;;0.50;0.50;;;9.70;99.90;;;;;;4388949;32;20147;-74
2023/03/13 09:55:20;;;;;;;0.40;0.40;;;9.70;99.90;;;;;;4381838;32;21458;-73
2023/03/13 09:57:50;;;;;;;0.45;0.45;;;9.80;99.90;;;;;;4379376;32;20924;-74
2023/03/13 10:00:23;;;;;;;1.08;0.73;;;9.80;99.90;;;;;;4356426;32;20972;-73
2023/03/13 10:03:04;;;;;;;0.40;0.40;;;9.90;99.90;;;;;;4390501;32;20248;-73
2023/03/13 10:05:31;;;;;;;0.40;0.40;;;9.90;99.90;;;;;;4387450;32;20110;-73
2023/03/13 10:08:08;;;;;;;0.60;0.60;;;9.90;99.90;;;;;;4391420;32;20113;-73
2023/03/13 10:10:44;;;;;;;0.47;0.47;;;10.00;99.90;;;;;;4384428;32;20342;-74
2023/03/13 10:13:47;;;;;;;0.32;0.32;;;10.00;99.90;;;;;;4388829;32;20100;-74
2023/03/13 10:16:21;;;;;;;0.90;0.90;;;10.00;99.90;;;;;;4379226;32;20451;-74
2023/03/13 10:18:52;;;;;;;0.50;0.50;;;10.00;99.90;;;;;;4385267;32;20116;-73
2023/03/13 10:21:20;;;;;;;0.30;0.30;;;10.10;99.90;;;;;;4382003;32;20121;-75
2023/03/13 10:24:09;;;;;;;0.40;0.40;;;10.10;99.90;;;;;;4384150;32;20229;-75
2023/03/13 10:26:36;;;;;;;0.45;0.45;;;10.20;99.90;;;;;;4393227;32;21117;-74
2023/03/13 10:29:24;;;;;;;0.40;0.40;;;10.20;99.90;;;;;;4399673;32;20133;-74
2023/03/13 10:31:56;;;;;;;0.50;0.50;;;10.30;99.90;;;;;;4384458;32;20939;-74
2023/03/13 10:34:23;;;;;;;0.40;0.40;;;10.40;99.90;;;;;;4393665;32;20104;-74
2023/03/13 10:36:54;;;;;;;0.40;0.40;;;10.40;99.90;;;;;;4396222;32;20261;-74
2023/03/13 10:39:22;;;;;;;5.53;1.02;;;10.50;99.90;;;;;;4387121;32;20112;-73
2023/03/13 10:41:49;;;;;;;0.37;0.37;;;10.60;99.90;;;;;;4390954;32;20090;-73
2023/03/13 10:44:21;;;;;;;0.40;0.40;;;10.60;99.90;;;;;;4393880;32;21251;-73
2023/03/13 10:46:49;;;;;;;4.62;1.58;;;10.70;99.90;;;;;;4392461;32;20077;-73
2023/03/13 10:49:18;;;;;;;0.25;0.25;;;10.70;99.90;;;;;;4392922;32;20133;-73
2023/03/13 10:51:48;;;;;;;0.32;0.32;;;10.80;99.90;;;;;;4389711;32;20160;-74
2023/03/13 10:54:16;;;;;;;0.40;0.40;;;10.90;99.90;;;;;;4392013;32;20470;-74
2023/03/13 10:56:42;;;;;;;0.40;0.40;;;11.00;99.90;;;;;;4388222;32;20740;-74
2023/03/13 10:59:25;;;;;;;0.37;0.37;;;11.10;99.90;;;;;;4386959;32;20588;-75
2023/03/13 11:01:57;;;;;;;0.30;0.30;;;11.20;99.90;;;;;;4389035;32;20823;-73
2023/03/13 11:04:39;;;;;;;0.40;0.40;;;11.30;99.90;;;;;;4393883;32;20089;-73
2023/03/13 11:07:15;;;;;;;0.35;0.35;;;11.30;99.90;;;;;;4395379;32;20812;-74
2023/03/13 11:09:40;;;;;;;4.12;1.00;;;11.40;99.90;;;;;;4391843;32;20339;-72
2023/03/13 11:12:13;;;;;;;1.10;0.60;;;11.50;99.90;;;;;;4396329;32;20069;-73
2023/03/13 11:14:39;;;;;;;0.45;0.45;;;11.60;99.90;;;;;;4390564;32;20161;-72
2023/03/13 11:17:22;;;;;;;0.50;0.50;;;11.60;99.90;;;;;;4390804;32;21890;-74
2023/03/13 11:19:57;;;;;;;0.40;0.40;;;11.70;99.90;;;;;;4391457;32;20429;-73
2023/03/13 11:23:02;;;;;;;0.70;0.43;;;11.90;99.90;;;;;;4394659;32;20376;-75
2023/03/13 11:25:38;;;;;;;0.35;0.35;;;11.90;99.90;;;;;;4372594;32;20668;-74
2023/03/13 11:28:32;;;;;;;0.40;0.40;;;12.00;99.90;;;;;;4405569;32;21942;-74
2023/03/13 11:31:08;;;;;;;0.40;0.40;;;12.20;99.90;;;;;;4392437;32;20096;-74
2023/03/13 11:33:58;;;;;;;0.40;0.40;;;12.30;99.90;;;;;;4403714;32;20109;-74
2023/03/13 11:36:33;;;;;;;0.50;0.50;;;12.40;99.90;;;;;;4393800;32;20093;-73
2023/03/13 11:39:27;;;;;;;0.37;0.37;;;12.50;99.90;;;;;;4402128;32;20176;-73
2023/03/13 11:42:08;;;;;;;0.30;0.30;;;12.50;99.90;;;;;;4399143;32;20113;-75
2023/03/13 11:44:44;;;;;;;;;;;12.50;99.90;;;;;;4392322;32;161297;-73
2023/03/13 11:47:32;;;;;;;0.30;0.30;;;12.60;99.90;;;;;;4381499;32;20157;-73
2023/03/13 11:50:07;;;;;;;0.30;0.30;;;12.70;99.90;;;;;;4394352;32;20592;-73
2023/03/13 11:52:59;;;;;;;0.40;0.40;;;12.70;99.90;;;;;;4386899;32;20777;-73
2023/03/13 11:55:40;;;;;;;0.40;0.40;;;12.80;99.90;;;;;;4369915;32;21333;-75
2023/03/13 11:58:32;;;;;;;0.43;0.43;;;12.80;99.90;;;;;;4362404;32;20293;-75
2023/03/13 12:01:06;;;;;;;0.40;0.40;;;12.90;99.90;;;;;;4374473;32;20458;-74
2023/03/13 12:03:41;;;;;;;0.37;0.37;;;12.90;99.90;;;;;;4370816;32;20144;-75
2023/03/13 12:06:16;;;;;;;0.40;0.40;;;13.00;99.90;;;;;;4386977;32;20103;-74
2023/03/13 12:08:47;;;;;;;0.40;0.40;;;13.00;99.90;;;;;;4383303;32;20801;-75
2023/03/13 12:11:16;;;;;;;0.30;0.30;;;13.20;99.90;;;;;;4386931;32;20199;-75
2023/03/13 12:13:53;;;;;;;0.30;0.30;;;13.60;99.90;;;;;;4378555;32;21293;-74
2023/03/13 12:16:24;;;;;;;0.50;0.50;;;13.80;99.90;;;;;;4389776;32;20336;-74
2023/03/13 12:18:51;;;;;;;0.30;0.30;;;14.00;99.90;;;;;;4380181;32;20124;-74
2023/03/13 12:21:30;;;;;;;0.32;0.32;;;14.10;99.90;;;;;;4388442;32;21122;-74
2023/03/13 12:24:03;;;;;;;0.30;0.30;;;14.10;99.90;;;;;;4389123;32;21519;-74
2023/03/13 12:26:49;;;;;;;0.50;0.50;;;14.30;99.90;;;;;;4385368;32;20101;-74
2023/03/13 12:29:20;;;;;;;0.40;0.40;;;14.60;99.90;;;;;;4385298;32;20118;-73
2023/03/13 12:31:53;;;;;;;0.40;0.40;;;14.70;99.90;;;;;;4379945;32;20217;-74
2023/03/13 12:34:26;;;;;;;0.40;0.40;;;15.10;99.90;;;;;;4378349;32;20686;-74
2023/03/13 12:37:20;;;;;;;0.70;0.70;;;15.40;99.90;;;;;;4389103;32;20172;-74
2023/03/13 12:39:53;;;;;;;0.40;0.40;;;15.60;99.90;;;;;;4380031;32;20093;-75
2023/03/13 12:42:35;;;;;;;0.50;0.50;;;15.60;99.90;;;;;;4375352;32;20601;-74
2023/03/13 12:45:01;;;;;;;0.40;0.40;;;15.60;99.90;;;;;;4395310;32;20206;-74
2023/03/13 12:47:32;;;;;;;0.77;0.52;;;16.00;99.90;;;;;;4396030;32;20579;-75
2023/03/13 12:50:12;;;;;;;0.40;0.40;;;16.10;99.90;;;;;;4396800;32;20160;-73
2023/03/13 12:53:19;;;;;;;0.55;0.55;;;16.50;99.90;;;;;;4397627;32;21229;-73
2023/03/13 12:56:01;;;;;;;0.40;0.40;;;16.70;99.90;;;;;;4375488;32;20130;-74
2023/03/13 12:58:49;;;;;;;0.47;0.47;;;16.70;99.90;;;;;;4393641;32;20218;-74
2023/03/13 13:01:29;;;;;;;0.40;0.40;;;16.60;99.90;;;;;;4385968;32;20199;-75
2023/03/13 13:04:00;;;;;;;0.30;0.30;;;16.80;99.90;;;;;;4399333;32;21348;-74
2023/03/13 13:06:50;;;;;;;0.47;0.47;;;17.40;99.90;;;;;;4402262;32;20092;-74